Time;durP1;ratioP1;P1;durP2;ratioP2;P2;SDS_P1;SDS_P2;PMS_P1;PMS_P2;Temp;Humidity;BMP_temperature;BMP_pressure;BME280_temperature;BME280_humidity;BME280_pressure;Samples;Min_cycle;Max_cycle;Signal;HPM_P1;HPM_P2
2023/01/30 00:00:06;;;;;;;27.13;10.77;;;;;;;-4.76;100.00;99225.47;4515336;31;20173;-68
2023/01/30 00:02:33;;;;;;;26.25;10.55;;;;;;;-4.74;100.00;99227.12;4517205;31;20173;-68
2023/01/30 00:05:00;;;;;;;20.45;10.23;;;;;;;-4.75;100.00;99225.44;4517774;31;20132;-68
2023/01/30 00:07:28;;;;;;;24.48;11.63;;;;;;;-4.70;100.00;99222.78;4517774;31;20366;-68
2023/01/30 00:09:55;;;;;;;22.42;9.38;;;;;;;-4.72;100.00;99229.66;4522950;31;20166;-68
2023/01/30 00:12:23;;;;;;;24.67;10.57;;;;;;;-4.82;100.00;99224.72;4533718;31;20502;-68
2023/01/30 00:14:50;;;;;;;26.40;11.15;;;;;;;-4.87;100.00;99226.53;4533663;31;20113;-68
2023/01/30 00:17:17;;;;;;;22.35;10.52;;;;;;;-4.98;100.00;99218.22;4533630;31;20095;-68
2023/01/30 00:19:44;;;;;;;23.10;9.57;;;;;;;-5.07;100.00;99210.72;4533488;31;20121;-68
2023/01/30 00:22:12;;;;;;;21.60;9.75;;;;;;;-5.05;100.00;99216.66;4527093;31;20129;-68
2023/01/30 00:24:39;;;;;;;23.12;10.45;;;;;;;-5.08;100.00;99216.72;4517714;31;20542;-68
2023/01/30 00:27:07;;;;;;;24.10;10.85;;;;;;;-5.17;100.00;99212.59;4517556;31;20453;-68
2023/01/30 00:29:34;;;;;;;20.27;9.43;;;;;;;-5.15;100.00;99220.25;4517514;31;20099;-68
2023/01/30 00:32:02;;;;;;;19.30;9.73;;;;;;;-5.12;100.00;99218.47;4517494;31;20162;-68
2023/01/30 00:34:29;;;;;;;22.15;10.20;;;;;;;-5.06;100.00;99227.72;4517473;31;20125;-68
2023/01/30 00:36:56;;;;;;;20.02;9.23;;;;;;;-5.12;100.00;99210.81;4517324;31;20152;-68
2023/01/30 00:39:34;;;;;;;24.17;8.80;;;;;;;-5.03;100.00;99209.78;4517648;31;20091;-68
2023/01/30 00:47:33;;;;;;;18.20;8.65;;;;;;;-5.05;100.00;99203.88;4517274;31;20139;-68
2023/01/30 00:50:00;;;;;;;19.83;10.13;;;;;;;-5.02;100.00;99198.72;4517562;31;20107;-68
2023/01/30 00:52:28;;;;;;;23.50;9.80;;;;;;;-5.07;100.00;99200.50;4517452;31;20105;-68
2023/01/30 00:54:55;;;;;;;22.52;10.38;;;;;;;-5.04;100.00;99192.78;4517213;31;20119;-68
2023/01/30 00:57:22;;;;;;;21.25;8.80;;;;;;;-5.12;100.00;99198.03;4517324;31;20123;-68
2023/01/30 00:59:50;;;;;;;24.75;9.90;;;;;;;-5.09;100.00;99190.31;4517056;31;20468;-68
2023/01/30 01:02:17;;;;;;;20.62;9.18;;;;;;;-5.12;100.00;99195.47;4514367;31;85171;-68
2023/01/30 01:04:44;;;;;;;20.50;9.35;;;;;;;-5.12;100.00;99199.75;4517342;31;20193;-68
2023/01/30 01:07:12;;;;;;;23.95;9.93;;;;;;;-5.25;100.00;99189.75;4517106;31;20111;-68
2023/01/30 01:09:40;;;;;;;24.17;9.00;;;;;;;-5.39;100.00;99195.13;4520482;31;20091;-68
2023/01/30 01:12:08;;;;;;;27.55;9.75;;;;;;;-5.37;100.00;99184.87;4533141;31;20095;-68
2023/01/30 01:14:35;;;;;;;18.67;9.05;;;;;;;-5.41;100.00;99180.69;4533117;31;20568;-68
2023/01/30 01:17:02;;;;;;;24.83;10.25;;;;;;;-5.46;100.00;99177.37;4533235;31;20589;-68
2023/01/30 01:19:30;;;;;;;23.10;8.88;;;;;;;-5.48;100.00;99174.00;4532814;31;20182;-68
2023/01/30 01:21:58;;;;;;;23.65;9.75;;;;;;;-5.48;100.00;99176.56;4527908;31;20202;-68
2023/01/30 01:24:26;;;;;;;22.17;9.40;;;;;;;-5.50;100.00;99168.94;4517115;31;20501;-68
2023/01/30 01:26:54;;;;;;;24.17;9.18;;;;;;;-5.45;100.00;99173.94;4516980;31;20112;-68
2023/01/30 01:29:21;;;;;;;20.70;10.27;;;;;;;-5.35;100.00;99157.59;4516985;31;20134;-68
2023/01/30 01:31:49;;;;;;;29.67;10.10;;;;;;;-5.33;100.00;99160.13;4517228;31;20111;-68
2023/01/30 01:34:16;;;;;;;23.20;10.30;;;;;;;-5.36;100.00;99158.47;4517183;31;20433;-68
2023/01/30 01:36:43;;;;;;;23.33;9.50;;;;;;;-5.35;100.00;99158.44;4516993;31;20092;-68
2023/01/30 01:39:21;;;;;;;24.83;9.18;;;;;;;-5.36;100.00;99153.34;4516106;31;20158;-68
2023/01/30 01:41:49;;;;;;;24.95;10.40;;;;;;;-5.33;100.00;99152.47;4517201;31;20114;-68
2023/01/30 01:44:16;;;;;;;21.42;10.13;;;;;;;-5.28;100.00;99148.97;4517074;31;20131;-68
2023/01/30 01:46:49;;;;;;;24.67;9.32;;;;;;;-5.31;100.00;99146.47;4516804;31;20167;-68
2023/01/30 01:49:23;;;;;;;22.30;8.73;;;;;;;-5.27;100.00;99148.09;4515526;31;20113;-68
2023/01/30 01:51:57;;;;;;;21.40;9.50;;;;;;;-5.19;100.00;99136.00;4516854;31;20143;-68
2023/01/30 01:55:01;;;;;;;21.73;9.13;;;;;;;-5.19;100.00;99138.56;4517032;31;20848;-68
2023/01/30 01:57:45;;;;;;;23.67;10.05;;;;;;;-5.20;100.00;99121.56;4451477;32;20587;-68
2023/01/30 02:00:15;;;;;;;19.57;8.23;;;;;;;-5.24;100.00;99119.09;4438705;32;20105;-68
2023/01/30 02:02:49;;;;;;;23.30;9.73;;;;;;;-5.32;100.00;99124.34;4438837;32;20714;-68
2023/01/30 02:05:16;;;;;;;;;;;;;;;-5.30;100.00;99117.47;4439048;32;20098;-68
2023/01/30 02:08:03;;;;;;;19.23;8.35;;;;;;;-5.31;100.00;99107.31;4451335;32;19992;-68
2023/01/30 02:10:41;;;;;;;19.90;7.60;;;;;;;-5.32;100.00;99106.47;4451089;32;20732;-68
2023/01/30 02:13:08;;;;;;;24.85;8.65;;;;;;;-5.28;100.00;99099.59;4438586;32;20111;-68
2023/01/30 02:15:36;;;;;;;22.45;8.73;;;;;;;-5.30;100.00;99102.16;4438616;32;20156;-68
2023/01/30 02:18:03;;;;;;;23.77;9.10;;;;;;;-5.30;100.00;99098.78;4451168;32;20106;-68
2023/01/30 02:20:49;;;;;;;18.87;8.80;;;;;;;-5.24;100.00;99091.84;4451272;32;20147;-68
2023/01/30 02:23:34;;;;;;;22.62;9.50;;;;;;;-5.24;100.00;99084.19;4438321;32;20092;-68
2023/01/30 02:26:17;;;;;;;21.27;8.75;;;;;;;-5.23;100.00;99079.91;4450765;32;20516;-68
2023/01/30 02:29:05;;;;;;;18.00;8.90;;;;;;;-5.32;100.00;99069.91;4438541;32;20101;-68
2023/01/30 02:31:54;;;;;;;16.23;7.97;;;;;;;-5.37;100.00;99059.78;4491942;31;20491;-68
2023/01/30 02:34:33;;;;;;;18.62;8.65;;;;;;;-5.46;100.00;99072.72;4532591;31;20511;-68
2023/01/30 02:37:19;;;;;;;25.90;10.27;;;;;;;-5.53;100.00;99072.84;4532697;31;20094;-68
2023/01/30 02:39:55;;;;;;;22.83;8.70;;;;;;;-5.62;100.00;99077.25;4532426;31;20122;-68
2023/01/30 02:42:43;;;;;;;22.25;9.13;;;;;;;-5.66;100.00;99071.37;4532423;31;20087;-68
2023/01/30 02:45:27;;;;;;;19.87;7.78;;;;;;;-5.70;100.00;99062.09;4532349;31;20166;-68
2023/01/30 02:48:09;;;;;;;21.67;9.10;;;;;;;-5.68;100.00;99056.97;4517811;31;20532;-68
2023/01/30 02:50:48;;;;;;;19.85;9.10;;;;;;;-5.65;100.00;99046.69;4518249;31;20099;-68
2023/01/30 02:53:15;;;;;;;22.42;8.63;;;;;;;-5.66;100.00;99040.75;4517750;31;20102;-68
2023/01/30 02:55:43;;;;;;;21.87;9.73;;;;;;;-5.65;100.00;99036.50;4518161;31;20099;-68
2023/01/30 02:58:11;;;;;;;15.55;7.45;;;;;;;-5.56;100.00;99033.75;4532410;31;20104;-68
2023/01/30 03:00:54;;;;;;;20.65;8.68;;;;;;;-5.56;100.00;99023.53;4532305;31;20151;-68
2023/01/30 03:03:37;;;;;;;15.02;8.10;;;;;;;-5.47;100.00;99022.53;4517734;31;20474;-68
2023/01/30 03:06:22;;;;;;;18.40;8.63;;;;;;;-5.49;100.00;99019.19;4532200;31;20087;-68
2023/01/30 03:09:31;;;;;;;17.85;8.57;;;;;;;-5.50;100.00;99014.94;4532461;31;20087;-68
2023/01/30 03:12:25;;;;;;;16.77;7.30;;;;;;;-5.52;100.00;99015.78;4508605;31;20088;-68
2023/01/30 03:15:26;;;;;;;27.20;9.23;;;;;;;-5.49;100.00;99011.53;4516120;31;20433;-68
2023/01/30 03:17:53;;;;;;;16.92;8.07;;;;;;;-5.48;100.00;99024.25;4450624;32;20101;-68
2023/01/30 03:20:21;;;;;;;24.73;9.32;;;;;;;-5.47;100.00;99018.25;4438081;32;20111;-68
2023/01/30 03:22:48;;;;;;;19.83;8.18;;;;;;;-5.44;100.00;99018.19;4471140;32;20113;-68
2023/01/30 03:25:20;;;;;;;20.33;8.50;;;;;;;-5.46;100.00;99014.84;4482118;32;20116;-68
2023/01/30 03:27:50;;;;;;;20.02;8.57;;;;;;;-5.45;100.00;99013.13;4469044;32;20675;-68
2023/01/30 03:30:18;;;;;;;15.48;7.50;;;;;;;-5.53;100.00;99011.59;4469242;32;20088;-68
2023/01/30 03:32:46;;;;;;;18.90;9.05;;;;;;;-5.51;100.00;99009.00;4481762;32;20119;-68
2023/01/30 03:35:16;;;;;;;16.95;8.45;;;;;;;-5.50;100.00;99008.09;4481793;32;20245;-68
2023/01/30 03:37:45;;;;;;;24.08;8.52;;;;;;;-5.47;100.00;99002.94;4483332;32;20104;-68
2023/01/30 03:40:13;;;;;;;16.27;7.20;;;;;;;-5.42;100.00;99003.69;4483926;32;20207;-68
2023/01/30 03:42:41;;;;;;;15.85;8.10;;;;;;;-5.44;100.00;98995.22;4483684;32;20161;-68
2023/01/30 03:45:09;;;;;;;21.15;7.72;;;;;;;-5.42;100.00;98997.72;4484106;32;20126;-68
2023/01/30 03:47:37;;;;;;;18.85;7.22;;;;;;;-5.46;100.00;98996.97;4483733;32;20113;-68
2023/01/30 03:50:04;;;;;;;15.98;7.45;;;;;;;-5.41;100.00;98994.31;4483983;32;20123;-68
2023/01/30 03:52:34;;;;;;;19.85;8.40;;;;;;;-5.35;100.00;98991.62;4483848;32;20446;-68
2023/01/30 03:55:01;;;;;;;17.15;6.97;;;;;;;-5.36;100.00;98988.25;4523663;31;20171;-68
2023/01/30 03:57:29;;;;;;;17.33;8.15;;;;;;;-5.38;100.00;98989.16;4534011;31;20487;-68
2023/01/30 03:59:56;;;;;;;18.48;8.55;;;;;;;-5.38;100.00;98986.59;4534014;31;20170;-68
2023/01/30 04:02:25;;;;;;;17.62;7.12;;;;;;;-5.36;100.00;98988.25;4533300;31;20399;-68
2023/01/30 04:04:52;;;;;;;18.87;7.82;;;;;;;-5.32;100.00;98980.53;4534159;31;20123;-68
2023/01/30 04:07:20;;;;;;;19.35;7.55;;;;;;;-5.29;100.00;98968.53;4532555;31;20122;-68
2023/01/30 04:09:48;;;;;;;19.90;8.00;;;;;;;-5.33;100.00;98972.00;4534004;31;20095;-68
2023/01/30 04:12:16;;;;;;;17.40;8.25;;;;;;;-5.44;100.00;98973.97;4533752;31;20106;-68
2023/01/30 04:14:44;;;;;;;18.62;8.90;;;;;;;-5.43;100.00;98976.47;4533775;31;20492;-68
2023/01/30 04:17:12;;;;;;;21.23;9.27;;;;;;;-5.37;100.00;98967.84;4533696;31;20572;-68
2023/01/30 04:19:41;;;;;;;19.17;7.85;;;;;;;-5.37;100.00;98957.66;4533763;31;20121;-68
2023/01/30 04:22:09;;;;;;;19.87;8.48;;;;;;;-5.24;100.00;98966.72;4533538;31;20119;-68
2023/01/30 04:24:36;;;;;;;19.10;9.25;;;;;;;-5.32;100.00;98960.94;4533575;31;20118;-68
2023/01/30 04:27:04;;;;;;;19.12;9.07;;;;;;;-5.28;100.00;98965.09;4533456;31;20155;-68
2023/01/30 04:29:33;;;;;;;15.48;7.47;;;;;;;-5.23;100.00;98965.84;4532554;31;20518;-68
2023/01/30 04:32:01;;;;;;;18.87;8.00;;;;;;;-5.25;100.00;98959.94;4533554;31;20789;-68
2023/01/30 04:34:30;;;;;;;18.08;7.40;;;;;;;-5.19;100.00;98958.97;4533723;31;20122;-68
2023/01/30 04:36:57;;;;;;;29.75;10.20;;;;;;;-5.13;100.00;98952.84;4533583;31;20373;-68
2023/01/30 04:39:24;;;;;;;22.83;7.75;;;;;;;-5.08;100.00;98951.88;4533671;31;20510;-68
2023/01/30 04:41:51;;;;;;;21.60;9.20;;;;;;;-5.13;100.00;98947.75;4533153;31;20098;-68
2023/01/30 04:44:19;;;;;;;21.33;9.00;;;;;;;-5.18;100.00;98950.41;4533463;31;20099;-68
2023/01/30 04:46:46;;;;;;;22.62;9.18;;;;;;;-5.18;100.00;98938.50;4533376;31;20095;-68
2023/01/30 04:49:14;;;;;;;20.50;9.95;;;;;;;-5.26;100.00;98927.59;4533417;31;20518;-68
2023/01/30 04:51:41;;;;;;;19.42;7.40;;;;;;;-5.25;100.00;98926.72;4533377;31;20520;-68
2023/01/30 04:54:08;;;;;;;17.12;7.68;;;;;;;-5.33;100.00;98922.66;4533274;31;20123;-68
2023/01/30 04:56:35;;;;;;;27.15;9.18;;;;;;;-5.40;100.00;98934.75;4533292;31;20526;-68
2023/01/30 04:59:04;;;;;;;17.55;8.65;;;;;;;-5.38;100.00;98927.88;4533550;31;20091;-68
2023/01/30 05:01:34;;;;;;;21.08;9.27;;;;;;;-5.40;100.00;98924.53;4533488;31;20126;-68
2023/01/30 05:04:02;;;;;;;20.12;9.05;;;;;;;-5.43;100.00;98930.53;4532690;31;20103;-68
2023/01/30 05:06:30;;;;;;;19.50;7.70;;;;;;;-5.48;100.00;98929.81;4521423;31;20171;-69
2023/01/30 05:08:58;;;;;;;15.02;6.70;;;;;;;-5.56;100.00;98919.72;4516603;31;20089;-69
2023/01/30 05:11:27;;;;;;;20.00;8.10;;;;;;;-5.42;100.00;98922.00;4531614;31;20152;-69
2023/01/30 05:13:55;;;;;;;24.90;9.18;;;;;;;-5.37;100.00;98927.00;4531681;31;20091;-69
2023/01/30 05:16:23;;;;;;;17.60;7.72;;;;;;;-5.30;100.00;98920.88;4532685;31;20142;-69
2023/01/30 05:18:50;;;;;;;18.23;7.80;;;;;;;-5.33;100.00;98920.09;4532174;31;20158;-69
2023/01/30 05:21:21;;;;;;;18.50;8.23;;;;;;;-5.26;100.00;98926.75;4532752;31;20075;-69
2023/01/30 05:23:50;;;;;;;17.87;7.20;;;;;;;-5.26;100.00;98912.28;4513283;31;20498;-69
2023/01/30 05:26:18;;;;;;;23.77;8.48;;;;;;;-5.17;100.00;98912.06;4517639;31;20621;-69
2023/01/30 05:28:50;;;;;;;22.08;8.85;;;;;;;-5.18;100.00;98910.41;4516837;31;20113;-69
2023/01/30 05:31:18;;;;;;;17.75;7.97;;;;;;;-5.21;100.00;98907.06;4517248;31;20107;-69
2023/01/30 05:33:47;;;;;;;22.37;8.98;;;;;;;-5.17;100.00;98917.16;4516852;31;20140;-69
2023/01/30 05:36:16;;;;;;;14.95;8.02;;;;;;;-5.22;100.00;98913.06;4516435;31;20095;-69
2023/01/30 05:38:44;;;;;;;13.02;7.12;;;;;;;-5.28;100.00;98905.50;4518787;31;20174;-69
2023/01/30 05:41:13;;;;;;;15.57;7.97;;;;;;;-5.26;100.00;98907.16;4521178;31;20087;-69
2023/01/30 05:43:40;;;;;;;18.52;8.18;;;;;;;-5.26;100.00;98906.34;4516788;31;20118;-69
2023/01/30 05:46:10;;;;;;;21.55;9.27;;;;;;;-5.23;100.00;98912.22;4520067;31;20122;-69
2023/01/30 05:48:37;;;;;;;20.40;9.18;;;;;;;-5.23;100.00;98907.09;4521005;31;20153;-69
2023/01/30 05:51:04;;;;;;;16.87;7.53;;;;;;;-5.23;100.00;98902.00;4521954;31;20121;-69
2023/01/30 05:53:33;;;;;;;24.10;9.75;;;;;;;-5.19;100.00;98900.22;4520810;31;20179;-69
2023/01/30 05:56:03;;;;;;;25.35;8.05;;;;;;;-5.20;100.00;98907.03;4522110;31;20147;-69
2023/01/30 05:58:31;;;;;;;18.27;7.65;;;;;;;-5.21;100.00;98902.81;4518728;31;20105;-69
2023/01/30 06:01:01;;;;;;;20.33;8.63;;;;;;;-5.26;100.00;98917.38;4516925;31;20172;-69
2023/01/30 06:03:28;;;;;;;22.02;8.13;;;;;;;-5.26;100.00;98922.50;4528090;31;20091;-69
2023/01/30 06:05:55;;;;;;;18.45;9.10;;;;;;;-5.27;100.00;98919.97;4523526;31;20163;-69
2023/01/30 06:08:23;;;;;;;13.38;6.28;;;;;;;-5.22;100.00;98924.09;4516052;31;20083;-69
2023/01/30 06:10:50;;;;;;;21.40;7.10;;;;;;;-5.15;100.00;98921.41;4522628;31;20158;-69
2023/01/30 06:13:17;;;;;;;17.35;8.68;;;;;;;-5.18;100.00;98918.06;4524065;31;20135;-69
2023/01/30 06:15:45;;;;;;;25.95;9.20;;;;;;;-5.13;100.00;98912.84;4518953;31;20100;-69
2023/01/30 06:18:12;;;;;;;21.02;7.97;;;;;;;-5.10;100.00;98912.78;4509570;31;20143;-69
2023/01/30 06:20:40;;;;;;;20.25;7.15;;;;;;;-4.98;100.00;98911.66;4517161;31;20091;-69
2023/01/30 06:23:07;;;;;;;23.33;9.55;;;;;;;-4.93;100.00;98924.31;4520441;31;20176;-69
2023/01/30 06:25:35;;;;;;;25.65;8.68;;;;;;;-4.91;100.00;98920.00;4512667;31;20151;-70
2023/01/30 06:28:02;;;;;;;28.52;8.63;;;;;;;-4.89;100.00;98910.56;4500099;31;20100;-70
2023/01/30 06:30:29;;;;;;;26.52;9.60;;;;;;;-4.81;100.00;98919.72;4513866;31;20163;-71
2023/01/30 06:32:57;;;;;;;23.95;7.25;;;;;;;-4.70;100.00;98910.97;4512342;31;20507;-70
2023/01/30 06:35:25;;;;;;;16.37;8.02;;;;;;;-4.60;100.00;98911.56;4528263;31;20091;-71
2023/01/30 06:37:52;;;;;;;21.65;9.32;;;;;;;-4.57;100.00;98908.94;4527739;31;20095;-70
2023/01/30 06:40:19;;;;;;;19.42;7.90;;;;;;;-4.44;100.00;98905.19;4525972;31;20140;-71
2023/01/30 06:42:47;;;;;;;25.02;10.30;;;;;;;-4.37;100.00;98895.66;4516669;31;20096;-70
2023/01/30 06:45:17;;;;;;;21.23;8.00;;;;;;;-4.28;100.00;98900.53;4516149;31;20393;-71
2023/01/30 06:47:49;;;;;;;28.23;9.15;;;;;;;-4.00;100.00;98907.44;4523376;31;20103;-69
2023/01/30 06:50:18;;;;;;;19.37;8.35;;;;;;;-3.83;100.00;98894.16;4522196;31;20111;-72
2023/01/30 06:52:47;;;;;;;20.73;8.15;;;;;;;-3.69;100.00;98894.59;4510938;31;20151;-70
2023/01/30 06:55:16;;;;;;;21.30;8.35;;;;;;;-3.39;100.00;98895.41;4525252;31;20096;-71
2023/01/30 06:57:46;;;;;;;20.77;9.13;;;;;;;-3.31;100.00;98907.16;4519321;31;20079;-71
2023/01/30 07:00:18;;;;;;;22.70;7.87;;;;;;;-3.24;100.00;98904.34;4524985;31;20108;-71
2023/01/30 07:02:46;;;;;;;20.48;8.75;;;;;;;-2.97;100.00;98903.53;4505752;31;20111;-71
2023/01/30 07:05:14;;;;;;;24.42;8.80;;;;;;;-2.80;100.00;98901.28;4493311;31;20155;-70
2023/01/30 07:07:42;;;;;;;23.00;8.20;;;;;;;-2.64;100.00;98895.63;4517593;31;20644;-71
2023/01/30 07:10:11;;;;;;;22.58;7.97;;;;;;;-2.57;100.00;98887.69;4520800;31;20767;-71
2023/01/30 07:12:39;;;;;;;20.83;8.65;;;;;;;-2.47;100.00;98888.19;4528023;31;20096;-71
2023/01/30 07:15:07;;;;;;;21.60;8.43;;;;;;;-2.34;100.00;98889.44;4519828;31;20088;-74
2023/01/30 07:17:35;;;;;;;22.20;9.80;;;;;;;-2.17;100.00;98893.16;4520683;31;20087;-73
2023/01/30 07:20:02;;;;;;;26.12;9.23;;;;;;;-2.07;100.00;98889.38;4502901;31;20118;-70
2023/01/30 07:22:30;;;;;;;20.00;8.85;;;;;;;-2.09;100.00;98898.00;4519096;31;20476;-70
2023/01/30 07:24:57;;;;;;;20.77;8.45;;;;;;;-1.88;100.00;98901.53;4512682;31;20113;-69
2023/01/30 07:27:29;;;;;;;17.17;8.43;;;;;;;-1.89;100.00;98898.16;4528657;31;20134;-70
2023/01/30 07:29:56;;;;;;;17.60;8.27;;;;;;;-1.88;100.00;98901.53;4531665;31;20096;-69
2023/01/30 07:32:23;;;;;;;19.75;7.65;;;;;;;-1.88;100.00;98894.66;4516162;31;20491;-69
2023/01/30 07:34:51;;;;;;;23.25;9.13;;;;;;;-1.93;100.00;98894.00;4515888;31;20088;-69
2023/01/30 07:37:18;;;;;;;20.67;9.18;;;;;;;-1.88;100.00;98896.41;4517382;31;20580;-71
2023/01/30 07:39:45;;;;;;;19.62;8.38;;;;;;;-1.98;100.00;98894.19;4516361;31;20140;-70
2023/01/30 07:42:12;;;;;;;22.13;8.95;;;;;;;-1.90;100.00;98891.31;4517912;31;20170;-72
2023/01/30 07:44:39;;;;;;;21.75;9.65;;;;;;;-1.73;100.00;98889.88;4520105;31;20562;-71
2023/01/30 07:47:07;;;;;;;26.40;9.02;;;;;;;-1.82;100.00;98896.19;4521307;31;20145;-69
2023/01/30 07:49:34;;;;;;;24.17;10.25;;;;;;;-1.97;100.00;98890.72;4527013;31;21934;-71
2023/01/30 07:52:01;;;;;;;23.67;9.32;;;;;;;-1.90;100.00;98882.78;4514230;31;20087;-72
2023/01/30 07:54:29;;;;;;;24.10;8.43;;;;;;;-1.76;100.00;98872.84;4522617;31;20126;-72
2023/01/30 07:56:56;;;;;;;25.58;9.20;;;;;;;-1.78;100.00;98879.78;4521180;31;20460;-71
2023/01/30 07:59:24;;;;;;;19.48;8.27;;;;;;;-1.71;100.00;98876.09;4521228;31;20103;-71
2023/01/30 08:01:51;;;;;;;18.35;8.32;;;;;;;-1.68;100.00;98873.41;4517120;31;21002;-71
2023/01/30 08:04:18;;;;;;;19.37;8.90;;;;;;;-1.70;100.00;98869.22;4530403;31;20413;-71
2023/01/30 08:06:45;;;;;;;21.37;8.43;;;;;;;-1.66;100.00;98861.34;4521819;31;20126;-71
2023/01/30 08:09:12;;;;;;;20.92;9.30;;;;;;;-1.67;100.00;98867.34;4526548;31;20845;-71
2023/01/30 08:11:40;;;;;;;20.20;8.93;;;;;;;-1.49;100.00;98859.84;4517059;31;20167;-72
2023/01/30 08:14:07;;;;;;;21.73;8.88;;;;;;;-1.51;100.00;98851.38;4520518;31;20087;-72
2023/01/30 08:16:35;;;;;;;17.23;7.95;;;;;;;-1.40;100.00;98849.22;4514265;31;20155;-72
2023/01/30 08:19:05;;;;;;;23.08;9.52;;;;;;;-1.26;100.00;98826.41;4517290;31;20121;-68
2023/01/30 08:21:32;;;;;;;23.98;9.57;;;;;;;-1.15;100.00;98822.53;4514869;31;20182;-70
2023/01/30 08:23:59;;;;;;;23.08;9.35;;;;;;;-1.05;100.00;98810.97;4521009;31;20111;-70
2023/01/30 08:26:27;;;;;;;24.58;9.25;;;;;;;-0.91;100.00;98811.25;4518240;31;20142;-70
2023/01/30 08:28:54;;;;;;;22.13;9.27;;;;;;;-0.85;100.00;98805.00;4517585;31;20864;-71
2023/01/30 08:31:22;;;;;;;20.20;8.75;;;;;;;-0.85;100.00;98806.75;4524093;31;20145;-71
2023/01/30 08:33:49;;;;;;;24.80;10.50;;;;;;;-0.96;100.00;98827.78;4517030;31;20134;-73
2023/01/30 08:36:17;;;;;;;21.17;9.65;;;;;;;-0.94;100.00;98824.25;4524224;31;20158;-71
2023/01/30 08:38:44;;;;;;;27.27;10.40;;;;;;;-0.88;100.00;98814.59;4520198;31;20131;-71
2023/01/30 08:41:11;;;;;;;22.87;9.73;;;;;;;-0.88;100.00;98809.44;4519963;31;20111;-72
2023/01/30 08:43:39;;;;;;;26.02;9.60;;;;;;;-0.80;100.00;98812.50;4517405;31;20472;-69
2023/01/30 08:46:06;;;;;;;21.73;9.52;;;;;;;-0.75;100.00;98802.88;4521379;31;20087;-69
2023/01/30 08:48:36;;;;;;;26.52;11.02;;;;;;;-0.76;100.00;98803.78;4516546;31;20095;-71
2023/01/30 08:51:16;;;;;;;26.48;10.95;;;;;;;-0.82;100.00;98796.31;4531201;31;20088;-71
2023/01/30 08:53:43;;;;;;;25.90;10.70;;;;;;;-0.73;100.00;98801.06;4520554;31;20144;-71
2023/01/30 08:56:11;;;;;;;26.20;10.10;;;;;;;-0.72;100.00;98802.75;4530053;31;20087;-71
2023/01/30 08:58:39;;;;;;;28.02;11.20;;;;;;;-0.73;100.00;98803.66;4532396;31;20117;-72
2023/01/30 09:01:07;;;;;;;30.12;11.77;;;;;;;-0.64;100.00;98803.25;4519286;31;20195;-72
2023/01/30 09:03:34;;;;;;;26.20;10.88;;;;;;;-0.39;100.00;98808.19;4525631;31;20175;-72
2023/01/30 09:06:01;;;;;;;25.02;10.27;;;;;;;-0.16;100.00;98811.47;4514250;31;20099;-73
2023/01/30 09:08:29;;;;;;;36.58;12.02;;;;;;;-0.02;100.00;98809.09;4514299;31;20121;-73
2023/01/30 09:11:00;;;;;;;26.10;12.15;;;;;;;0.08;100.00;98800.97;4514473;31;20114;-72
2023/01/30 09:13:27;;;;;;;27.62;10.90;;;;;;;0.09;100.00;98798.34;4525603;31;20132;-71
2023/01/30 09:15:55;;;;;;;24.55;10.82;;;;;;;0.12;100.00;98792.19;4517814;31;20122;-72
2023/01/30 09:18:23;;;;;;;28.90;11.40;;;;;;;0.03;100.00;98790.88;4518750;31;20163;-72
2023/01/30 09:20:50;;;;;;;24.05;10.27;;;;;;;0.11;100.00;98796.50;4503082;31;20143;-73
2023/01/30 09:23:19;;;;;;;21.85;10.38;;;;;;;0.03;100.00;98800.34;4524130;31;20190;-73
2023/01/30 09:25:46;;;;;;;30.50;10.35;;;;;;;0.16;100.00;98791.16;4515132;31;20117;-72
2023/01/30 09:28:14;;;;;;;29.37;11.35;;;;;;;-0.01;100.00;98786.78;4514160;31;20083;-72
2023/01/30 09:30:41;;;;;;;23.90;9.60;;;;;;;0.12;100.00;98777.59;4513120;31;20158;-72
2023/01/30 09:33:08;;;;;;;25.20;10.75;;;;;;;0.30;100.00;98775.91;4513565;31;20431;-72
2023/01/30 09:35:35;;;;;;;25.37;10.80;;;;;;;0.35;100.00;98783.41;4519460;31;20428;-72
2023/01/30 09:38:04;;;;;;;30.77;11.77;;;;;;;0.39;100.00;98782.34;4522084;31;20133;-73
2023/01/30 09:40:32;;;;;;;27.62;11.45;;;;;;;0.61;100.00;98765.84;4523331;31;20084;-73
2023/01/30 09:43:19;;;;;;;25.90;11.35;;;;;;;0.55;100.00;98771.31;4505484;31;20096;-72
2023/01/30 09:46:08;;;;;;;28.48;11.50;;;;;;;0.56;100.00;98754.91;4516463;31;20155;-73
2023/01/30 09:48:42;;;;;;;23.62;9.63;;;;;;;0.75;100.00;98749.72;4528830;31;20154;-74
2023/01/30 09:51:24;;;;;;;26.05;10.35;;;;;;;0.79;100.00;98746.91;4513925;31;20134;-73
2023/01/30 09:53:58;;;;;;;22.95;10.60;;;;;;;0.84;100.00;98733.78;4524349;31;20147;-74
2023/01/30 09:56:27;;;;;;;27.98;11.70;;;;;;;0.78;100.00;98737.50;4521328;31;20151;-74
2023/01/30 09:59:00;;;;;;;25.60;10.90;;;;;;;0.65;100.00;98734.69;4516647;31;20160;-73
2023/01/30 10:02:05;;;;;;;28.95;10.52;;;;;;;0.74;100.00;98732.56;4518241;31;20112;-73
2023/01/30 10:04:35;;;;;;;35.88;11.95;;;;;;;0.85;100.00;98715.66;4518470;31;20095;-73
2023/01/30 10:07:26;;;;;;;25.27;11.63;;;;;;;0.93;100.00;98711.84;4522969;31;20099;-73
2023/01/30 10:10:00;;;;;;;29.35;12.35;;;;;;;0.90;100.00;98723.16;4508816;31;20104;-74
2023/01/30 10:12:49;;;;;;;24.02;10.18;;;;;;;1.05;100.00;98711.22;4519609;31;20121;-73
2023/01/30 10:15:40;;;;;;;28.02;9.75;;;;;;;1.19;100.00;98706.16;4518527;31;20087;-74
2023/01/30 10:18:10;;;;;;;20.42;8.23;;;;;;;1.35;100.00;98702.81;4516386;31;20515;-74
2023/01/30 10:20:44;;;;;;;22.20;9.65;;;;;;;1.32;100.00;98696.06;4526866;31;20102;-74
2023/01/30 10:23:39;;;;;;;21.42;10.32;;;;;;;1.46;100.00;98702.25;4519957;31;20108;-73
2023/01/30 10:26:26;;;;;;;22.20;9.77;;;;;;;1.38;100.00;98698.31;4522569;31;20512;-74
2023/01/30 10:28:59;;;;;;;23.45;10.45;;;;;;;1.44;100.00;98694.59;4519857;31;20507;-73
2023/01/30 10:31:46;;;;;;;22.05;9.15;;;;;;;1.53;100.00;98690.66;4524923;31;20491;-74
2023/01/30 10:34:24;;;;;;;20.12;10.30;;;;;;;1.88;100.00;98675.84;4516962;31;20087;-74
2023/01/30 10:36:58;;;;;;;23.02;10.13;;;;;;;1.92;100.00;98669.59;4516707;31;20533;-73
2023/01/30 10:39:33;;;;;;;22.70;9.15;;;;;;;1.91;100.00;98660.19;4506810;31;20075;-72
2023/01/30 10:42:13;;;;;;;24.63;9.60;;;;;;;2.31;100.00;98651.91;4524812;31;20572;-72
2023/01/30 10:44:41;;;;;;;19.92;8.90;;;;;;;2.49;100.00;98644.84;4513308;31;20121;-73
2023/01/30 10:47:40;;;;;;;27.58;11.52;;;;;;;2.12;100.00;98652.16;4519014;31;20113;-73
2023/01/30 10:50:19;;;;;;;23.45;9.73;;;;;;;2.10;100.00;98634.13;4449366;32;20101;-72
2023/01/30 10:53:01;;;;;;;20.42;10.25;;;;;;;2.21;100.00;98638.69;4453815;32;20157;-73
2023/01/30 10:55:33;;;;;;;26.75;10.60;;;;;;;2.28;100.00;98632.25;4455905;32;20185;-72
2023/01/30 10:58:18;;;;;;;19.80;9.38;;;;;;;1.94;100.00;98618.66;4442018;32;20123;-72
2023/01/30 11:00:58;;;;;;;20.12;9.73;;;;;;;1.86;100.00;98610.53;4446536;32;20306;-72
2023/01/30 11:03:26;;;;;;;22.60;9.43;;;;;;;1.76;100.00;98610.19;4449045;32;20162;-72
2023/01/30 11:05:58;;;;;;;25.08;10.48;;;;;;;1.70;100.00;98597.63;4458499;32;20180;-71
2023/01/30 11:08:32;;;;;;;24.92;10.20;;;;;;;1.62;100.00;98596.38;4447302;32;20100;-71
2023/01/30 11:11:00;;;;;;;22.00;9.45;;;;;;;1.69;100.00;98593.38;4463999;32;20089;-71
2023/01/30 11:13:32;;;;;;;18.65;9.35;;;;;;;1.79;100.00;98573.03;4451657;32;20324;-72
2023/01/30 11:16:05;;;;;;;18.00;8.68;;;;;;;1.82;100.00;98574.59;4457141;32;20471;-72
2023/01/30 11:18:43;;;;;;;19.15;7.72;;;;;;;1.86;100.00;98569.19;4452328;32;20183;-71
2023/01/30 11:21:31;;;;;;;22.00;9.95;;;;;;;1.84;100.00;98568.44;4462113;32;20541;-71
2023/01/30 11:24:16;;;;;;;23.33;9.50;;;;;;;1.92;100.00;98555.94;4481082;32;20093;-71
2023/01/30 11:26:43;;;;;;;16.92;7.78;;;;;;;1.73;100.00;98539.81;4485294;31;20468;-71
2023/01/30 11:29:28;;;;;;;18.05;8.85;;;;;;;1.66;100.00;98534.16;4514157;31;20091;-74
2023/01/30 11:31:57;;;;;;;17.62;8.98;;;;;;;1.88;100.00;98541.53;4525796;31;20113;-73
2023/01/30 11:34:24;;;;;;;21.05;9.75;;;;;;;1.99;100.00;98532.31;4516437;31;20122;-73
2023/01/30 11:36:51;;;;;;;19.70;9.63;;;;;;;2.03;100.00;98526.03;4530871;31;20088;-72
2023/01/30 11:39:22;;;;;;;19.23;8.43;;;;;;;1.95;100.00;98531.66;4516453;31;20107;-74